sensor_id;sensor_type;location;lat;lon;timestamp;P1;durP1;ratioP1;P2;durP2;ratioP2
74213;SDS011;62576;55.694;37.494;2023-03-17T00:01:08;6.78;;;3.20;;
74213;SDS011;62576;55.694;37.494;2023-03-17T00:03:40;7.07;;;3.10;;
74213;SDS011;62576;55.694;37.494;2023-03-17T00:06:13;6.72;;;3.00;;
74213;SDS011;62576;55.694;37.494;2023-03-17T00:08:45;8.50;;;2.90;;
74213;SDS011;62576;55.694;37.494;2023-03-17T00:11:16;5.88;;;2.83;;
74213;SDS011;62576;55.694;37.494;2023-03-17T00:13:47;6.35;;;3.08;;
74213;SDS011;62576;55.694;37.494;2023-03-17T00:16:17;8.43;;;3.00;;
74213;SDS011;62576;55.694;37.494;2023-03-17T00:18:49;6.90;;;2.67;;
74213;SDS011;62576;55.694;37.494;2023-03-17T00:21:21;7.95;;;3.00;;
74213;SDS011;62576;55.694;37.494;2023-03-17T00:23:56;8.25;;;3.45;;
74213;SDS011;62576;55.694;37.494;2023-03-17T00:26:28;7.88;;;2.88;;
74213;SDS011;62576;55.694;37.494;2023-03-17T00:29:02;6.65;;;3.00;;
74213;SDS011;62576;55.694;37.494;2023-03-17T00:31:33;7.05;;;2.90;;
74213;SDS011;62576;55.694;37.494;2023-03-17T00:34:04;8.50;;;2.75;;
74213;SDS011;62576;55.694;37.494;2023-03-17T00:36:35;5.63;;;2.80;;
74213;SDS011;62576;55.694;37.494;2023-03-17T00:39:05;7.60;;;2.80;;
74213;SDS011;62576;55.694;37.494;2023-03-17T00:41:47;5.45;;;2.60;;
74213;SDS011;62576;55.694;37.494;2023-03-17T00:44:17;6.28;;;3.22;;
74213;SDS011;62576;55.694;37.494;2023-03-17T00:46:47;7.05;;;2.85;;
74213;SDS011;62576;55.694;37.494;2023-03-17T00:49:18;6.72;;;3.13;;
74213;SDS011;62576;55.694;37.494;2023-03-17T00:51:49;7.97;;;3.42;;
74213;SDS011;62576;55.694;37.494;2023-03-17T00:54:20;7.45;;;3.30;;
74213;SDS011;62576;55.694;37.494;2023-03-17T00:56:51;7.00;;;3.30;;
74213;SDS011;62576;55.694;37.494;2023-03-17T00:59:23;9.95;;;3.28;;
74213;SDS011;62576;55.694;37.494;2023-03-17T01:01:57;10.27;;;4.00;;
74213;SDS011;62576;55.694;37.494;2023-03-17T01:04:27;9.63;;;3.97;;
74213;SDS011;62576;55.694;37.494;2023-03-17T01:06:57;10.60;;;3.58;;
74213;SDS011;62576;55.694;37.494;2023-03-17T01:09:28;9.00;;;4.10;;
74213;SDS011;62576;55.694;37.494;2023-03-17T01:12:00;12.68;;;4.45;;
74213;SDS011;62576;55.694;37.494;2023-03-17T01:17:01;12.55;;;4.75;;
74213;SDS011;62576;55.694;37.494;2023-03-17T01:19:32;13.98;;;4.90;;
74213;SDS011;62576;55.694;37.494;2023-03-17T01:22:04;13.48;;;6.78;;
74213;SDS011;62576;55.694;37.494;2023-03-17T01:24:34;13.35;;;4.90;;
74213;SDS011;62576;55.694;37.494;2023-03-17T01:27:06;12.60;;;4.95;;
74213;SDS011;62576;55.694;37.494;2023-03-17T01:29:36;15.10;;;4.75;;
74213;SDS011;62576;55.694;37.494;2023-03-17T01:32:07;11.45;;;4.32;;
74213;SDS011;62576;55.694;37.494;2023-03-17T01:34:37;11.88;;;4.47;;
74213;SDS011;62576;55.694;37.494;2023-03-17T01:37:08;11.60;;;4.35;;
74213;SDS011;62576;55.694;37.494;2023-03-17T01:39:38;12.25;;;4.13;;
74213;SDS011;62576;55.694;37.494;2023-03-17T01:42:10;9.00;;;4.15;;
74213;SDS011;62576;55.694;37.494;2023-03-17T01:44:55;8.18;;;3.50;;
74213;SDS011;62576;55.694;37.494;2023-03-17T01:47:29;9.20;;;3.22;;
74213;SDS011;62576;55.694;37.494;2023-03-17T01:50:02;10.38;;;3.40;;
74213;SDS011;62576;55.694;37.494;2023-03-17T01:52:36;8.65;;;3.08;;
74213;SDS011;62576;55.694;37.494;2023-03-17T01:55:10;8.10;;;3.35;;
74213;SDS011;62576;55.694;37.494;2023-03-17T01:57:49;7.75;;;3.08;;
74213;SDS011;62576;55.694;37.494;2023-03-17T02:00:22;6.45;;;2.67;;
74213;SDS011;62576;55.694;37.494;2023-03-17T02:02:54;8.82;;;2.50;;
74213;SDS011;62576;55.694;37.494;2023-03-17T02:05:25;8.75;;;2.88;;
74213;SDS011;62576;55.694;37.494;2023-03-17T02:07:58;5.53;;;2.40;;
74213;SDS011;62576;55.694;37.494;2023-03-17T02:10:28;6.82;;;2.58;;
74213;SDS011;62576;55.694;37.494;2023-03-17T02:13:03;6.10;;;2.85;;
74213;SDS011;62576;55.694;37.494;2023-03-17T02:15:35;8.02;;;3.38;;
74213;SDS011;62576;55.694;37.494;2023-03-17T02:18:07;6.20;;;2.67;;
74213;SDS011;62576;55.694;37.494;2023-03-17T02:23:47;7.72;;;3.28;;
74213;SDS011;62576;55.694;37.494;2023-03-17T02:26:17;9.25;;;2.80;;
74213;SDS011;62576;55.694;37.494;2023-03-17T02:28:51;7.18;;;3.75;;
74213;SDS011;62576;55.694;37.494;2023-03-17T02:31:23;7.60;;;2.72;;
74213;SDS011;62576;55.694;37.494;2023-03-17T02:33:54;7.50;;;3.40;;
74213;SDS011;62576;55.694;37.494;2023-03-17T02:36:24;9.15;;;2.83;;
74213;SDS011;62576;55.694;37.494;2023-03-17T02:38:56;7.00;;;2.90;;
74213;SDS011;62576;55.694;37.494;2023-03-17T02:41:26;6.53;;;2.78;;
74213;SDS011;62576;55.694;37.494;2023-03-17T02:43:59;8.25;;;2.90;;
74213;SDS011;62576;55.694;37.494;2023-03-17T02:46:29;5.95;;;2.65;;
74213;SDS011;62576;55.694;37.494;2023-03-17T02:49:00;7.88;;;2.80;;
74213;SDS011;62576;55.694;37.494;2023-03-17T02:51:30;7.18;;;2.60;;
74213;SDS011;62576;55.694;37.494;2023-03-17T02:54:02;8.73;;;2.83;;
74213;SDS011;62576;55.694;37.494;2023-03-17T02:56:33;7.85;;;2.50;;
74213;SDS011;62576;55.694;37.494;2023-03-17T02:59:04;7.20;;;2.13;;
74213;SDS011;62576;55.694;37.494;2023-03-17T03:01:34;5.15;;;2.15;;
74213;SDS011;62576;55.694;37.494;2023-03-17T03:04:05;5.15;;;2.30;;
74213;SDS011;62576;55.694;37.494;2023-03-17T03:06:36;6.00;;;2.55;;
74213;SDS011;62576;55.694;37.494;2023-03-17T03:09:08;5.30;;;2.20;;
74213;SDS011;62576;55.694;37.494;2023-03-17T03:11:38;3.65;;;1.60;;
74213;SDS011;62576;55.694;37.494;2023-03-17T03:14:09;6.72;;;1.88;;
74213;SDS011;62576;55.694;37.494;2023-03-17T03:16:39;4.72;;;1.80;;
74213;SDS011;62576;55.694;37.494;2023-03-17T03:19:10;7.07;;;1.95;;
74213;SDS011;62576;55.694;37.494;2023-03-17T03:21:40;5.40;;;2.00;;
74213;SDS011;62576;55.694;37.494;2023-03-17T03:24:12;5.18;;;1.67;;
74213;SDS011;62576;55.694;37.494;2023-03-17T03:26:42;5.10;;;1.90;;
74213;SDS011;62576;55.694;37.494;2023-03-17T03:29:13;6.05;;;2.03;;
74213;SDS011;62576;55.694;37.494;2023-03-17T03:31:41;3.88;;;1.75;;
74213;SDS011;62576;55.694;37.494;2023-03-17T03:34:15;4.40;;;1.63;;
74213;SDS011;62576;55.694;37.494;2023-03-17T03:36:45;3.63;;;1.50;;
74213;SDS011;62576;55.694;37.494;2023-03-17T03:39:17;3.15;;;1.55;;
74213;SDS011;62576;55.694;37.494;2023-03-17T03:41:46;3.95;;;1.42;;
74213;SDS011;62576;55.694;37.494;2023-03-17T03:44:17;2.65;;;1.38;;
74213;SDS011;62576;55.694;37.494;2023-03-17T03:46:47;5.15;;;1.55;;
74213;SDS011;62576;55.694;37.494;2023-03-17T03:49:17;4.13;;;1.60;;
74213;SDS011;62576;55.694;37.494;2023-03-17T03:51:47;4.57;;;1.40;;
74213;SDS011;62576;55.694;37.494;2023-03-17T03:54:18;2.53;;;1.15;;
74213;SDS011;62576;55.694;37.494;2023-03-17T03:56:48;4.05;;;1.38;;
74213;SDS011;62576;55.694;37.494;2023-03-17T03:59:25;3.03;;;1.60;;
74213;SDS011;62576;55.694;37.494;2023-03-17T04:02:01;4.72;;;1.50;;
74213;SDS011;62576;55.694;37.494;2023-03-17T04:04:32;2.90;;;1.50;;
74213;SDS011;62576;55.694;37.494;2023-03-17T04:07:02;4.10;;;1.25;;
74213;SDS011;62576;55.694;37.494;2023-03-17T04:09:36;4.97;;;2.03;;
74213;SDS011;62576;55.694;37.494;2023-03-17T04:12:07;4.80;;;1.67;;
74213;SDS011;62576;55.694;37.494;2023-03-17T04:14:38;5.63;;;1.48;;
74213;SDS011;62576;55.694;37.494;2023-03-17T04:17:08;4.28;;;1.48;;
74213;SDS011;62576;55.694;37.494;2023-03-17T04:19:39;4.15;;;1.63;;
74213;SDS011;62576;55.694;37.494;2023-03-17T04:22:09;3.45;;;1.20;;
74213;SDS011;62576;55.694;37.494;2023-03-17T04:24:42;4.05;;;1.17;;
74213;SDS011;62576;55.694;37.494;2023-03-17T04:27:13;4.50;;;1.20;;
74213;SDS011;62576;55.694;37.494;2023-03-17T04:29:44;3.72;;;1.30;;
74213;SDS011;62576;55.694;37.494;2023-03-17T04:32:16;2.70;;;1.40;;
74213;SDS011;62576;55.694;37.494;2023-03-17T04:34:46;2.83;;;1.40;;
74213;SDS011;62576;55.694;37.494;2023-03-17T04:37:15;5.85;;;1.40;;
74213;SDS011;62576;55.694;37.494;2023-03-17T04:39:47;4.80;;;1.67;;
74213;SDS011;62576;55.694;37.494;2023-03-17T04:42:18;3.38;;;1.40;;
74213;SDS011;62576;55.694;37.494;2023-03-17T04:44:48;3.30;;;1.20;;
74213;SDS011;62576;55.694;37.494;2023-03-17T04:47:18;3.53;;;1.60;;
74213;SDS011;62576;55.694;37.494;2023-03-17T04:49:49;2.83;;;1.30;;
74213;SDS011;62576;55.694;37.494;2023-03-17T04:52:18;2.88;;;1.30;;
74213;SDS011;62576;55.694;37.494;2023-03-17T04:54:50;3.47;;;1.30;;
74213;SDS011;62576;55.694;37.494;2023-03-17T04:57:21;5.60;;;1.40;;
74213;SDS011;62576;55.694;37.494;2023-03-17T04:59:51;3.45;;;1.30;;
74213;SDS011;62576;55.694;37.494;2023-03-17T05:02:21;6.32;;;1.27;;
74213;SDS011;62576;55.694;37.494;2023-03-17T05:04:51;2.50;;;1.10;;
74213;SDS011;62576;55.694;37.494;2023-03-17T05:07:22;3.97;;;1.52;;
74213;SDS011;62576;55.694;37.494;2023-03-17T05:09:54;4.20;;;1.40;;
74213;SDS011;62576;55.694;37.494;2023-03-17T05:12:25;2.33;;;1.10;;
74213;SDS011;62576;55.694;37.494;2023-03-17T05:14:55;2.72;;;1.20;;
74213;SDS011;62576;55.694;37.494;2023-03-17T05:17:25;3.63;;;1.30;;
74213;SDS011;62576;55.694;37.494;2023-03-17T05:19:55;1.55;;;1.10;;
74213;SDS011;62576;55.694;37.494;2023-03-17T05:22:26;5.65;;;1.27;;
74213;SDS011;62576;55.694;37.494;2023-03-17T05:24:57;3.05;;;1.25;;
74213;SDS011;62576;55.694;37.494;2023-03-17T05:27:27;4.82;;;1.33;;
74213;SDS011;62576;55.694;37.494;2023-03-17T05:29:58;4.22;;;1.15;;
74213;SDS011;62576;55.694;37.494;2023-03-17T05:32:29;3.80;;;1.27;;
74213;SDS011;62576;55.694;37.494;2023-03-17T05:35:02;4.20;;;1.20;;
74213;SDS011;62576;55.694;37.494;2023-03-17T05:37:33;3.03;;;1.17;;
74213;SDS011;62576;55.694;37.494;2023-03-17T05:40:02;2.25;;;1.20;;
74213;SDS011;62576;55.694;37.494;2023-03-17T05:42:33;4.95;;;1.73;;
74213;SDS011;62576;55.694;37.494;2023-03-17T05:45:03;2.67;;;1.25;;
74213;SDS011;62576;55.694;37.494;2023-03-17T05:47:34;4.65;;;1.30;;
74213;SDS011;62576;55.694;37.494;2023-03-17T05:50:05;3.53;;;1.05;;
74213;SDS011;62576;55.694;37.494;2023-03-17T05:52:36;5.18;;;1.33;;
74213;SDS011;62576;55.694;37.494;2023-03-17T05:55:08;5.68;;;1.88;;
74213;SDS011;62576;55.694;37.494;2023-03-17T05:57:39;4.72;;;1.17;;
74213;SDS011;62576;55.694;37.494;2023-03-17T06:00:10;3.50;;;1.35;;
74213;SDS011;62576;55.694;37.494;2023-03-17T06:02:41;5.38;;;1.55;;
74213;SDS011;62576;55.694;37.494;2023-03-17T06:05:11;3.15;;;1.25;;
74213;SDS011;62576;55.694;37.494;2023-03-17T06:07:42;2.70;;;1.27;;
74213;SDS011;62576;55.694;37.494;2023-03-17T06:10:14;7.53;;;1.38;;
74213;SDS011;62576;55.694;37.494;2023-03-17T06:12:45;5.30;;;1.83;;
74213;SDS011;62576;55.694;37.494;2023-03-17T06:15:15;2.55;;;1.30;;
74213;SDS011;62576;55.694;37.494;2023-03-17T06:17:46;4.00;;;1.60;;
74213;SDS011;62576;55.694;37.494;2023-03-17T06:20:16;2.90;;;1.33;;
74213;SDS011;62576;55.694;37.494;2023-03-17T06:22:46;4.22;;;1.50;;
74213;SDS011;62576;55.694;37.494;2023-03-17T06:25:18;3.63;;;1.25;;
74213;SDS011;62576;55.694;37.494;2023-03-17T06:27:48;7.20;;;1.85;;
74213;SDS011;62576;55.694;37.494;2023-03-17T06:30:22;6.10;;;1.50;;
74213;SDS011;62576;55.694;37.494;2023-03-17T06:32:52;6.15;;;1.95;;
74213;SDS011;62576;55.694;37.494;2023-03-17T06:35:22;5.68;;;1.75;;
74213;SDS011;62576;55.694;37.494;2023-03-17T06:37:52;5.10;;;1.80;;
74213;SDS011;62576;55.694;37.494;2023-03-17T06:40:21;4.30;;;1.50;;
74213;SDS011;62576;55.694;37.494;2023-03-17T06:42:51;6.78;;;1.90;;
74213;SDS011;62576;55.694;37.494;2023-03-17T06:45:21;6.80;;;1.75;;
74213;SDS011;62576;55.694;37.494;2023-03-17T06:47:52;3.70;;;1.67;;
74213;SDS011;62576;55.694;37.494;2023-03-17T06:50:22;3.28;;;1.40;;
74213;SDS011;62576;55.694;37.494;2023-03-17T06:52:52;6.85;;;1.52;;
74213;SDS011;62576;55.694;37.494;2023-03-17T06:55:24;4.40;;;1.63;;
74213;SDS011;62576;55.694;37.494;2023-03-17T06:57:54;8.25;;;1.80;;
74213;SDS011;62576;55.694;37.494;2023-03-17T07:00:25;6.40;;;1.88;;
74213;SDS011;62576;55.694;37.494;2023-03-17T07:02:56;4.13;;;1.52;;
74213;SDS011;62576;55.694;37.494;2023-03-17T07:05:26;5.13;;;1.58;;
74213;SDS011;62576;55.694;37.494;2023-03-17T07:07:56;4.13;;;1.73;;
74213;SDS011;62576;55.694;37.494;2023-03-17T07:10:27;7.57;;;1.80;;
74213;SDS011;62576;55.694;37.494;2023-03-17T07:12:58;10.55;;;3.17;;
74213;SDS011;62576;55.694;37.494;2023-03-17T07:15:29;5.90;;;2.00;;
74213;SDS011;62576;55.694;37.494;2023-03-17T07:18:04;6.80;;;1.83;;
74213;SDS011;62576;55.694;37.494;2023-03-17T07:20:34;5.63;;;1.67;;
74213;SDS011;62576;55.694;37.494;2023-03-17T07:23:05;3.17;;;1.58;;
74213;SDS011;62576;55.694;37.494;2023-03-17T07:25:39;8.73;;;1.85;;
74213;SDS011;62576;55.694;37.494;2023-03-17T07:28:11;6.78;;;1.73;;
74213;SDS011;62576;55.694;37.494;2023-03-17T07:30:41;4.80;;;1.52;;
74213;SDS011;62576;55.694;37.494;2023-03-17T07:33:14;6.60;;;2.30;;
74213;SDS011;62576;55.694;37.494;2023-03-17T07:35:45;7.72;;;1.65;;
74213;SDS011;62576;55.694;37.494;2023-03-17T07:38:17;3.70;;;1.30;;
74213;SDS011;62576;55.694;37.494;2023-03-17T07:40:47;6.05;;;1.50;;
74213;SDS011;62576;55.694;37.494;2023-03-17T07:43:20;4.45;;;1.52;;
74213;SDS011;62576;55.694;37.494;2023-03-17T07:45:50;5.32;;;1.73;;
74213;SDS011;62576;55.694;37.494;2023-03-17T07:48:20;4.57;;;1.67;;
74213;SDS011;62576;55.694;37.494;2023-03-17T07:50:51;4.72;;;2.10;;
74213;SDS011;62576;55.694;37.494;2023-03-17T07:53:21;5.00;;;1.73;;
74213;SDS011;62576;55.694;37.494;2023-03-17T07:55:54;3.63;;;1.67;;
74213;SDS011;62576;55.694;37.494;2023-03-17T07:58:24;6.38;;;1.83;;
74213;SDS011;62576;55.694;37.494;2023-03-17T08:00:54;5.30;;;1.60;;
74213;SDS011;62576;55.694;37.494;2023-03-17T08:03:24;4.13;;;1.60;;
74213;SDS011;62576;55.694;37.494;2023-03-17T08:05:57;5.10;;;1.50;;
74213;SDS011;62576;55.694;37.494;2023-03-17T08:11:23;6.35;;;1.60;;
74213;SDS011;62576;55.694;37.494;2023-03-17T08:13:53;7.80;;;1.88;;
74213;SDS011;62576;55.694;37.494;2023-03-17T08:16:25;2.70;;;1.40;;
74213;SDS011;62576;55.694;37.494;2023-03-17T08:19:08;4.90;;;1.88;;
74213;SDS011;62576;55.694;37.494;2023-03-17T08:21:39;6.78;;;2.47;;
74213;SDS011;62576;55.694;37.494;2023-03-17T08:24:10;3.53;;;1.40;;
74213;SDS011;62576;55.694;37.494;2023-03-17T08:26:44;4.90;;;1.27;;
74213;SDS011;62576;55.694;37.494;2023-03-17T08:29:20;5.75;;;1.70;;
74213;SDS011;62576;55.694;37.494;2023-03-17T08:31:52;2.78;;;1.35;;
74213;SDS011;62576;55.694;37.494;2023-03-17T08:34:25;4.93;;;1.83;;
74213;SDS011;62576;55.694;37.494;2023-03-17T08:37:05;3.88;;;1.65;;
74213;SDS011;62576;55.694;37.494;2023-03-17T08:39:54;6.32;;;1.45;;
74213;SDS011;62576;55.694;37.494;2023-03-17T08:42:31;7.38;;;1.60;;
74213;SDS011;62576;55.694;37.494;2023-03-17T08:45:05;2.88;;;1.13;;
74213;SDS011;62576;55.694;37.494;2023-03-17T08:47:37;7.45;;;1.30;;
74213;SDS011;62576;55.694;37.494;2023-03-17T08:50:08;5.63;;;1.40;;
74213;SDS011;62576;55.694;37.494;2023-03-17T08:52:41;2.67;;;1.42;;
74213;SDS011;62576;55.694;37.494;2023-03-17T08:55:11;8.50;;;2.05;;
74213;SDS011;62576;55.694;37.494;2023-03-17T08:57:44;3.10;;;1.50;;
74213;SDS011;62576;55.694;37.494;2023-03-17T09:00:15;4.63;;;1.52;;
74213;SDS011;62576;55.694;37.494;2023-03-17T09:02:47;3.90;;;1.23;;
74213;SDS011;62576;55.694;37.494;2023-03-17T09:05:21;4.85;;;1.67;;
74213;SDS011;62576;55.694;37.494;2023-03-17T09:07:51;4.60;;;1.30;;
74213;SDS011;62576;55.694;37.494;2023-03-17T09:10:21;3.53;;;1.27;;
74213;SDS011;62576;55.694;37.494;2023-03-17T09:12:53;4.45;;;1.80;;
74213;SDS011;62576;55.694;37.494;2023-03-17T09:15:30;2.95;;;1.40;;
74213;SDS011;62576;55.694;37.494;2023-03-17T09:18:00;3.45;;;1.50;;
74213;SDS011;62576;55.694;37.494;2023-03-17T09:20:31;7.18;;;1.52;;
74213;SDS011;62576;55.694;37.494;2023-03-17T09:23:04;5.43;;;1.40;;
74213;SDS011;62576;55.694;37.494;2023-03-17T09:25:36;4.43;;;1.42;;
74213;SDS011;62576;55.694;37.494;2023-03-17T09:28:10;4.55;;;2.03;;
74213;SDS011;62576;55.694;37.494;2023-03-17T09:30:39;4.83;;;1.20;;
74213;SDS011;62576;55.694;37.494;2023-03-17T09:33:11;4.70;;;1.33;;
74213;SDS011;62576;55.694;37.494;2023-03-17T09:35:42;4.38;;;1.77;;
74213;SDS011;62576;55.694;37.494;2023-03-17T09:38:13;4.97;;;1.33;;
74213;SDS011;62576;55.694;37.494;2023-03-17T09:40:43;6.85;;;1.58;;
74213;SDS011;62576;55.694;37.494;2023-03-17T09:43:20;5.13;;;1.55;;
74213;SDS011;62576;55.694;37.494;2023-03-17T09:45:57;3.15;;;1.50;;
74213;SDS011;62576;55.694;37.494;2023-03-17T09:48:42;3.30;;;1.30;;
74213;SDS011;62576;55.694;37.494;2023-03-17T09:51:22;4.20;;;1.60;;
74213;SDS011;62576;55.694;37.494;2023-03-17T09:53:53;2.75;;;1.40;;
74213;SDS011;62576;55.694;37.494;2023-03-17T09:56:28;2.15;;;1.30;;
74213;SDS011;62576;55.694;37.494;2023-03-17T09:59:03;2.50;;;1.20;;
74213;SDS011;62576;55.694;37.494;2023-03-17T10:01:35;3.85;;;1.48;;
74213;SDS011;62576;55.694;37.494;2023-03-17T10:04:10;3.35;;;1.30;;
74213;SDS011;62576;55.694;37.494;2023-03-17T10:06:40;7.05;;;1.38;;
74213;SDS011;62576;55.694;37.494;2023-03-17T10:09:16;3.55;;;1.23;;
74213;SDS011;62576;55.694;37.494;2023-03-17T10:11:56;3.00;;;1.30;;
74213;SDS011;62576;55.694;37.494;2023-03-17T10:14:37;2.22;;;1.48;;
74213;SDS011;62576;55.694;37.494;2023-03-17T10:17:17;2.40;;;1.30;;
74213;SDS011;62576;55.694;37.494;2023-03-17T10:19:53;4.43;;;1.27;;
74213;SDS011;62576;55.694;37.494;2023-03-17T10:22:28;4.07;;;1.60;;
74213;SDS011;62576;55.694;37.494;2023-03-17T10:25:04;4.78;;;1.77;;
74213;SDS011;62576;55.694;37.494;2023-03-17T10:27:45;3.85;;;1.45;;
74213;SDS011;62576;55.694;37.494;2023-03-17T10:30:22;2.95;;;1.30;;
74213;SDS011;62576;55.694;37.494;2023-03-17T10:32:53;2.08;;;1.30;;
74213;SDS011;62576;55.694;37.494;2023-03-17T10:35:28;2.70;;;1.45;;
74213;SDS011;62576;55.694;37.494;2023-03-17T10:38:08;3.83;;;1.48;;
74213;SDS011;62576;55.694;37.494;2023-03-17T10:40:43;2.20;;;1.45;;
74213;SDS011;62576;55.694;37.494;2023-03-17T10:43:26;3.33;;;1.40;;
74213;SDS011;62576;55.694;37.494;2023-03-17T10:46:03;3.63;;;1.55;;
74213;SDS011;62576;55.694;37.494;2023-03-17T10:48:36;4.22;;;1.58;;
74213;SDS011;62576;55.694;37.494;2023-03-17T10:51:08;3.17;;;1.40;;
74213;SDS011;62576;55.694;37.494;2023-03-17T10:53:40;3.85;;;1.50;;
74213;SDS011;62576;55.694;37.494;2023-03-17T10:56:19;2.65;;;1.48;;
74213;SDS011;62576;55.694;37.494;2023-03-17T10:58:53;3.92;;;1.60;;
74213;SDS011;62576;55.694;37.494;2023-03-17T11:01:28;2.70;;;1.40;;
74213;SDS011;62576;55.694;37.494;2023-03-17T11:04:17;3.85;;;1.50;;
74213;SDS011;62576;55.694;37.494;2023-03-17T11:06:55;3.75;;;1.45;;
74213;SDS011;62576;55.694;37.494;2023-03-17T11:09:26;3.17;;;1.50;;
74213;SDS011;62576;55.694;37.494;2023-03-17T11:12:04;2.13;;;1.40;;
74213;SDS011;62576;55.694;37.494;2023-03-17T11:14:35;5.47;;;1.60;;
74213;SDS011;62576;55.694;37.494;2023-03-17T11:17:12;4.03;;;1.55;;
74213;SDS011;62576;55.694;37.494;2023-03-17T11:19:48;4.03;;;1.40;;
74213;SDS011;62576;55.694;37.494;2023-03-17T11:22:25;2.65;;;1.55;;
74213;SDS011;62576;55.694;37.494;2023-03-17T11:25:04;3.28;;;1.42;;
74213;SDS011;62576;55.694;37.494;2023-03-17T11:27:39;4.03;;;1.65;;
74213;SDS011;62576;55.694;37.494;2023-03-17T11:30:16;2.85;;;1.58;;
74213;SDS011;62576;55.694;37.494;2023-03-17T11:33:01;2.70;;;1.60;;
74213;SDS011;62576;55.694;37.494;2023-03-17T11:35:41;2.58;;;1.55;;
74213;SDS011;62576;55.694;37.494;2023-03-17T11:38:20;2.47;;;1.48;;
74213;SDS011;62576;55.694;37.494;2023-03-17T11:40:57;2.30;;;1.40;;
74213;SDS011;62576;55.694;37.494;2023-03-17T11:43:42;1.55;;;1.40;;
74213;SDS011;62576;55.694;37.494;2023-03-17T11:46:29;7.03;;;1.70;;
74213;SDS011;62576;55.694;37.494;2023-03-17T11:49:09;5.70;;;1.80;;
74213;SDS011;62576;55.694;37.494;2023-03-17T11:51:46;4.20;;;2.08;;
74213;SDS011;62576;55.694;37.494;2023-03-17T11:54:22;7.03;;;2.15;;
74213;SDS011;62576;55.694;37.494;2023-03-17T11:57:04;4.10;;;1.73;;
74213;SDS011;62576;55.694;37.494;2023-03-17T11:59:44;4.68;;;1.75;;
74213;SDS011;62576;55.694;37.494;2023-03-17T12:02:22;2.90;;;1.50;;
74213;SDS011;62576;55.694;37.494;2023-03-17T12:04:59;4.50;;;1.77;;
74213;SDS011;62576;55.694;37.494;2023-03-17T12:07:33;3.83;;;1.80;;
74213;SDS011;62576;55.694;37.494;2023-03-17T12:10:13;7.20;;;2.30;;
74213;SDS011;62576;55.694;37.494;2023-03-17T12:12:49;5.57;;;1.88;;
74213;SDS011;62576;55.694;37.494;2023-03-17T12:15:25;3.63;;;1.80;;
74213;SDS011;62576;55.694;37.494;2023-03-17T12:18:00;7.10;;;4.20;;
74213;SDS011;62576;55.694;37.494;2023-03-17T12:20:39;4.32;;;1.70;;
74213;SDS011;62576;55.694;37.494;2023-03-17T12:23:23;2.75;;;1.60;;
74213;SDS011;62576;55.694;37.494;2023-03-17T12:26:00;5.25;;;2.10;;
74213;SDS011;62576;55.694;37.494;2023-03-17T12:28:35;5.65;;;2.03;;
74213;SDS011;62576;55.694;37.494;2023-03-17T12:31:11;4.63;;;1.73;;
74213;SDS011;62576;55.694;37.494;2023-03-17T12:33:47;5.18;;;1.63;;
74213;SDS011;62576;55.694;37.494;2023-03-17T12:36:25;4.43;;;1.80;;
74213;SDS011;62576;55.694;37.494;2023-03-17T12:38:57;5.32;;;1.98;;
74213;SDS011;62576;55.694;37.494;2023-03-17T12:44:38;3.63;;;1.65;;
74213;SDS011;62576;55.694;37.494;2023-03-17T12:47:23;5.18;;;1.92;;
74213;SDS011;62576;55.694;37.494;2023-03-17T12:53:12;6.55;;;1.60;;
74213;SDS011;62576;55.694;37.494;2023-03-17T12:55:53;3.10;;;1.45;;
74213;SDS011;62576;55.694;37.494;2023-03-17T13:01:10;5.63;;;1.70;;
74213;SDS011;62576;55.694;37.494;2023-03-17T13:03:55;4.38;;;1.65;;
74213;SDS011;62576;55.694;37.494;2023-03-17T13:06:30;3.67;;;1.30;;
74213;SDS011;62576;55.694;37.494;2023-03-17T13:12:01;4.68;;;1.35;;
74213;SDS011;62576;55.694;37.494;2023-03-17T13:14:39;5.97;;;1.50;;
74213;SDS011;62576;55.694;37.494;2023-03-17T13:20:10;4.47;;;2.15;;
74213;SDS011;62576;55.694;37.494;2023-03-17T13:25:48;3.30;;;1.50;;
74213;SDS011;62576;55.694;37.494;2023-03-17T13:28:24;2.05;;;1.10;;
74213;SDS011;62576;55.694;37.494;2023-03-17T13:34:01;4.55;;;1.48;;
74213;SDS011;62576;55.694;37.494;2023-03-17T13:36:38;4.18;;;1.48;;
74213;SDS011;62576;55.694;37.494;2023-03-17T13:39:25;4.68;;;1.63;;
74213;SDS011;62576;55.694;37.494;2023-03-17T13:45:34;4.47;;;1.42;;
74213;SDS011;62576;55.694;37.494;2023-03-17T13:50:56;3.35;;;1.23;;
74213;SDS011;62576;55.694;37.494;2023-03-17T13:53:29;2.88;;;1.30;;
74213;SDS011;62576;55.694;37.494;2023-03-17T13:56:09;5.43;;;1.60;;
74213;SDS011;62576;55.694;37.494;2023-03-17T13:58:55;2.83;;;1.40;;
74213;SDS011;62576;55.694;37.494;2023-03-17T14:01:34;3.50;;;1.35;;
74213;SDS011;62576;55.694;37.494;2023-03-17T14:04:12;5.00;;;1.30;;
74213;SDS011;62576;55.694;37.494;2023-03-17T14:06:50;3.13;;;1.52;;
74213;SDS011;62576;55.694;37.494;2023-03-17T14:09:29;4.55;;;1.25;;
74213;SDS011;62576;55.694;37.494;2023-03-17T14:12:09;5.10;;;1.45;;
74213;SDS011;62576;55.694;37.494;2023-03-17T14:14:46;5.15;;;1.40;;
74213;SDS011;62576;55.694;37.494;2023-03-17T14:17:23;6.90;;;2.05;;
74213;SDS011;62576;55.694;37.494;2023-03-17T14:20:04;3.55;;;1.23;;
74213;SDS011;62576;55.694;37.494;2023-03-17T14:22:39;3.47;;;1.40;;
74213;SDS011;62576;55.694;37.494;2023-03-17T14:25:15;2.30;;;1.20;;
74213;SDS011;62576;55.694;37.494;2023-03-17T14:27:50;2.63;;;1.30;;
74213;SDS011;62576;55.694;37.494;2023-03-17T14:30:24;6.55;;;1.60;;
74213;SDS011;62576;55.694;37.494;2023-03-17T14:33:03;3.85;;;1.60;;
74213;SDS011;62576;55.694;37.494;2023-03-17T14:35:42;2.40;;;1.30;;
74213;SDS011;62576;55.694;37.494;2023-03-17T14:38:14;4.15;;;1.50;;
74213;SDS011;62576;55.694;37.494;2023-03-17T14:40:46;5.95;;;1.80;;
74213;SDS011;62576;55.694;37.494;2023-03-17T14:43:19;4.32;;;1.70;;
74213;SDS011;62576;55.694;37.494;2023-03-17T14:45:52;2.60;;;1.30;;
74213;SDS011;62576;55.694;37.494;2023-03-17T14:48:29;3.17;;;1.27;;
74213;SDS011;62576;55.694;37.494;2023-03-17T14:51:00;3.22;;;1.40;;
74213;SDS011;62576;55.694;37.494;2023-03-17T14:53:34;4.18;;;1.50;;
74213;SDS011;62576;55.694;37.494;2023-03-17T14:56:13;4.30;;;1.27;;
74213;SDS011;62576;55.694;37.494;2023-03-17T14:58:51;4.45;;;1.83;;
74213;SDS011;62576;55.694;37.494;2023-03-17T15:01:33;6.55;;;1.73;;
74213;SDS011;62576;55.694;37.494;2023-03-17T15:09:26;3.47;;;1.33;;
74213;SDS011;62576;55.694;37.494;2023-03-17T15:12:00;3.33;;;1.38;;
74213;SDS011;62576;55.694;37.494;2023-03-17T15:14:34;6.78;;;2.70;;
74213;SDS011;62576;55.694;37.494;2023-03-17T15:17:15;5.32;;;1.70;;
74213;SDS011;62576;55.694;37.494;2023-03-17T15:19:53;4.22;;;1.77;;
74213;SDS011;62576;55.694;37.494;2023-03-17T15:22:28;6.80;;;1.60;;
74213;SDS011;62576;55.694;37.494;2023-03-17T15:25:17;5.20;;;1.58;;
74213;SDS011;62576;55.694;37.494;2023-03-17T15:27:56;10.60;;;2.22;;
74213;SDS011;62576;55.694;37.494;2023-03-17T15:30:28;4.72;;;1.92;;
74213;SDS011;62576;55.694;37.494;2023-03-17T15:33:01;8.52;;;1.60;;
74213;SDS011;62576;55.694;37.494;2023-03-17T15:35:32;4.57;;;1.70;;
74213;SDS011;62576;55.694;37.494;2023-03-17T15:38:04;5.85;;;2.00;;
74213;SDS011;62576;55.694;37.494;2023-03-17T15:40:34;6.45;;;1.92;;
74213;SDS011;62576;55.694;37.494;2023-03-17T15:43:05;5.55;;;1.73;;
74213;SDS011;62576;55.694;37.494;2023-03-17T15:45:35;3.38;;;1.67;;
74213;SDS011;62576;55.694;37.494;2023-03-17T15:48:08;10.50;;;2.10;;
74213;SDS011;62576;55.694;37.494;2023-03-17T15:50:43;12.70;;;3.13;;